createdAt,value
2017-12-10T00:00:23.541Z,997.1
2017-12-10T00:01:25.136Z,997.1
2017-12-10T00:02:26.789Z,997.1
2017-12-10T00:03:28.207Z,997.0
2017-12-10T00:04:29.702Z,997.0
2017-12-10T00:05:31.273Z,997.0
2017-12-10T00:06:32.950Z,997.0
2017-12-10T00:07:34.340Z,996.9
2017-12-10T00:08:35.779Z,996.9
2017-12-10T00:09:37.305Z,996.8
2017-12-10T00:10:38.722Z,996.9
2017-12-10T00:11:40.222Z,996.9
2017-12-10T00:12:41.669Z,996.9
2017-12-10T00:13:43.291Z,996.9
2017-12-10T00:14:44.984Z,996.8
2017-12-10T00:15:46.461Z,996.8
2017-12-10T00:16:47.982Z,996.8
2017-12-10T00:17:49.476Z,996.8
2017-12-10T00:18:50.919Z,996.7
2017-12-10T00:19:52.522Z,996.7
2017-12-10T00:20:54.002Z,996.6
2017-12-10T00:21:55.457Z,996.6
2017-12-10T00:22:57.030Z,996.6
2017-12-10T00:23:58.678Z,996.6
2017-12-10T00:25:00.136Z,996.6
2017-12-10T00:26:01.839Z,996.6
2017-12-10T00:27:03.306Z,996.5
2017-12-10T00:28:04.758Z,996.4
2017-12-10T00:29:06.262Z,996.5
2017-12-10T00:30:07.735Z,996.4
2017-12-10T00:31:09.382Z,996.4
2017-12-10T00:32:10.842Z,996.3
2017-12-10T00:33:12.289Z,996.3
2017-12-10T00:34:13.977Z,996.3
2017-12-10T00:35:15.463Z,996.3
2017-12-10T00:36:16.883Z,996.3
2017-12-10T00:37:18.347Z,996.2
2017-12-10T00:38:19.762Z,996.1
2017-12-10T00:39:21.296Z,996.2
2017-12-10T00:40:22.728Z,996.2
2017-12-10T00:41:24.161Z,996.1
2017-12-10T00:42:25.591Z,996.1
2017-12-10T00:43:27.030Z,996.0
2017-12-10T00:44:28.436Z,996.1
2017-12-10T00:45:29.879Z,996.1
2017-12-10T00:46:31.338Z,996.0
2017-12-10T00:47:32.797Z,996.1
2017-12-10T00:48:34.199Z,996.0
2017-12-10T00:49:35.645Z,996.0
2017-12-10T00:50:37.089Z,996.0
2017-12-10T00:51:38.575Z,995.9
2017-12-10T00:52:40.064Z,996.0
2017-12-10T00:53:41.563Z,995.8
2017-12-10T00:54:42.980Z,995.8
2017-12-10T00:55:44.416Z,995.8
2017-12-10T00:56:45.835Z,995.8
2017-12-10T00:57:47.252Z,995.7
2017-12-10T00:58:48.732Z,995.7
2017-12-10T00:59:50.143Z,995.7
2017-12-10T01:00:51.619Z,995.7
2017-12-10T01:01:53.034Z,995.7
2017-12-10T01:02:54.482Z,995.7
2017-12-10T01:03:55.941Z,995.6
2017-12-10T01:04:57.375Z,995.7
2017-12-10T01:05:58.769Z,995.7
2017-12-10T01:07:00.184Z,995.6
2017-12-10T01:08:01.636Z,995.6
2017-12-10T01:09:03.111Z,995.6
2017-12-10T01:10:04.841Z,995.6
2017-12-10T01:11:06.316Z,995.5
2017-12-10T01:12:07.723Z,995.6
2017-12-10T01:13:09.178Z,995.5
2017-12-10T01:14:10.600Z,995.6
2017-12-10T01:15:11.986Z,995.5
2017-12-10T01:16:13.437Z,995.5
2017-12-10T01:17:14.869Z,995.5
2017-12-10T01:18:16.320Z,995.5
2017-12-10T01:19:17.741Z,995.5
2017-12-10T01:20:19.151Z,995.5
2017-12-10T01:21:20.618Z,995.5
2017-12-10T01:22:22.044Z,995.5
2017-12-10T01:23:23.474Z,995.5
2017-12-10T01:24:24.963Z,995.5
2017-12-10T01:25:26.432Z,995.4
2017-12-10T01:26:27.969Z,995.4
2017-12-10T01:27:29.596Z,995.4
2017-12-10T01:28:31.017Z,995.4
2017-12-10T01:29:32.446Z,995.3
2017-12-10T01:30:34.208Z,995.4
2017-12-10T01:31:35.658Z,995.3
2017-12-10T01:32:37.151Z,995.3
2017-12-10T01:33:38.580Z,995.3
2017-12-10T01:34:40.007Z,995.2
2017-12-10T01:35:41.454Z,995.3
2017-12-10T01:36:42.882Z,995.2
2017-12-10T01:37:44.362Z,995.2
2017-12-10T01:38:45.778Z,995.2
2017-12-10T01:39:47.253Z,995.2
2017-12-10T01:40:48.658Z,995.2
2017-12-10T01:41:50.060Z,995.2
2017-12-10T01:42:51.551Z,995.2
2017-12-10T01:43:53.237Z,995.1
2017-12-10T01:44:54.686Z,995.1
2017-12-10T01:45:56.156Z,995.1
2017-12-10T01:46:57.583Z,995.1
2017-12-10T01:47:59.021Z,995.0
2017-12-10T01:49:00.494Z,995.1
2017-12-10T01:50:01.982Z,994.9
2017-12-10T01:51:03.411Z,995.0
2017-12-10T01:52:04.888Z,995.0
2017-12-10T01:53:06.586Z,995.0
2017-12-10T01:54:08.317Z,995.0
2017-12-10T01:55:09.807Z,994.9
2017-12-10T01:56:11.245Z,994.9
2017-12-10T01:57:12.665Z,994.9
2017-12-10T01:58:14.150Z,994.9
2017-12-10T01:59:15.604Z,994.9
2017-12-10T02:00:17.045Z,994.9
2017-12-10T02:01:18.456Z,994.9
2017-12-10T02:02:19.949Z,994.9
2017-12-10T02:03:21.364Z,994.8
2017-12-10T02:04:22.775Z,994.8
2017-12-10T02:05:24.222Z,994.8
2017-12-10T02:06:25.649Z,994.8
2017-12-10T02:07:27.141Z,994.7
2017-12-10T02:08:28.547Z,994.7
2017-12-10T02:09:30.035Z,994.6
2017-12-10T02:10:31.495Z,994.7
2017-12-10T02:11:32.937Z,994.6
2017-12-10T02:12:34.382Z,994.5
2017-12-10T02:13:35.817Z,994.6
2017-12-10T02:14:37.273Z,994.6
2017-12-10T02:15:38.783Z,994.5
2017-12-10T02:16:40.204Z,994.5
2017-12-10T02:17:41.657Z,994.4
2017-12-10T02:18:43.098Z,994.4
2017-12-10T02:19:44.554Z,994.4
2017-12-10T02:20:45.998Z,994.4
2017-12-10T02:21:47.477Z,994.3
2017-12-10T02:22:48.869Z,994.3
2017-12-10T02:23:50.285Z,994.3
2017-12-10T02:24:51.792Z,994.3
2017-12-10T02:25:53.273Z,994.3
2017-12-10T02:26:54.713Z,994.3
2017-12-10T02:27:56.223Z,994.2
2017-12-10T02:28:57.667Z,994.2
2017-12-10T02:29:59.086Z,994.1
2017-12-10T02:31:00.497Z,994.1
2017-12-10T02:32:01.936Z,994.0
2017-12-10T02:33:03.368Z,994.0
2017-12-10T02:34:04.786Z,994.0
2017-12-10T02:35:06.255Z,993.9
2017-12-10T02:36:07.649Z,993.9
2017-12-10T02:37:09.152Z,993.9
2017-12-10T02:38:10.586Z,993.8
2017-12-10T02:39:12.061Z,993.9
2017-12-10T02:40:13.480Z,993.8
2017-12-10T02:41:14.907Z,993.8
2017-12-10T02:42:16.299Z,993.8
2017-12-10T02:43:17.746Z,993.8
2017-12-10T02:44:19.208Z,993.8
2017-12-10T02:45:20.631Z,993.8
2017-12-10T02:46:22.054Z,993.8
2017-12-10T02:47:23.530Z,993.7
2017-12-10T02:48:24.984Z,993.7
2017-12-10T02:49:26.413Z,993.7
2017-12-10T02:50:27.823Z,993.6
2017-12-10T02:51:29.340Z,993.6
2017-12-10T02:52:30.739Z,993.5
2017-12-10T02:53:32.220Z,993.4
2017-12-10T02:54:33.662Z,993.4
2017-12-10T02:55:35.079Z,993.5
2017-12-10T02:56:36.603Z,993.4
2017-12-10T02:57:38.064Z,993.4
2017-12-10T02:58:39.492Z,993.3
2017-12-10T02:59:40.925Z,993.4
2017-12-10T03:00:42.398Z,993.3
2017-12-10T03:01:43.812Z,993.3
2017-12-10T03:02:45.660Z,993.3
2017-12-10T03:03:47.072Z,993.2
2017-12-10T03:04:48.508Z,993.3
2017-12-10T03:05:49.948Z,993.2
2017-12-10T03:06:51.388Z,993.2
2017-12-10T03:07:52.865Z,993.1
2017-12-10T03:08:54.275Z,993.1
2017-12-10T03:09:55.702Z,993.1
2017-12-10T03:10:57.146Z,993.1
2017-12-10T03:11:58.539Z,993.1
2017-12-10T03:12:59.967Z,993.1
2017-12-10T03:14:01.421Z,993.1
2017-12-10T03:15:02.882Z,993.1
2017-12-10T03:16:04.355Z,993.0
2017-12-10T03:17:06.052Z,993.1
2017-12-10T03:18:07.793Z,993.1
2017-12-10T03:19:09.244Z,993.0
2017-12-10T03:20:10.631Z,993.0
2017-12-10T03:21:12.110Z,992.9
2017-12-10T03:22:13.567Z,992.8
2017-12-10T03:23:14.993Z,992.8
2017-12-10T03:24:16.491Z,992.8
2017-12-10T03:25:17.991Z,992.8
2017-12-10T03:26:19.411Z,992.7
2017-12-10T03:27:20.892Z,992.7
2017-12-10T03:28:22.319Z,992.6
2017-12-10T03:29:23.765Z,992.6
2017-12-10T03:30:25.187Z,992.6
2017-12-10T03:31:26.894Z,992.7
2017-12-10T03:32:28.635Z,992.6
2017-12-10T03:33:30.606Z,992.5
2017-12-10T03:34:32.162Z,992.5
2017-12-10T03:35:33.546Z,992.5
2017-12-10T03:36:34.973Z,992.4
2017-12-10T03:37:36.464Z,992.4
2017-12-10T03:38:37.994Z,992.4
2017-12-10T03:39:39.398Z,992.4
2017-12-10T03:40:40.856Z,992.3
2017-12-10T03:41:42.350Z,992.3
2017-12-10T03:42:43.779Z,992.2
2017-12-10T03:43:45.192Z,992.2
2017-12-10T03:44:46.839Z,992.1
2017-12-10T03:45:48.401Z,992.1
2017-12-10T03:46:49.880Z,992.1
2017-12-10T03:47:51.293Z,992.1
2017-12-10T03:48:52.743Z,992.0
2017-12-10T03:49:54.307Z,992.0
2017-12-10T03:50:55.756Z,992.0
2017-12-10T03:51:57.212Z,992.0
2017-12-10T03:52:58.662Z,992.0
2017-12-10T03:54:00.273Z,992.0
2017-12-10T03:55:01.664Z,991.9
2017-12-10T03:56:03.123Z,991.9
2017-12-10T03:57:04.548Z,991.9
2017-12-10T03:58:06.002Z,991.9
2017-12-10T03:59:07.461Z,991.9
2017-12-10T04:00:08.963Z,991.9
2017-12-10T04:01:10.386Z,991.8
2017-12-10T04:02:11.867Z,991.8
2017-12-10T04:03:13.299Z,991.7
2017-12-10T04:04:14.748Z,991.6
2017-12-10T04:05:16.194Z,991.6
2017-12-10T04:06:17.651Z,991.6
2017-12-10T04:07:19.093Z,991.6
2017-12-10T04:08:20.530Z,991.6
2017-12-10T04:09:21.946Z,991.5
2017-12-10T04:10:23.374Z,991.5
2017-12-10T04:11:25.218Z,991.4
2017-12-10T04:12:26.636Z,991.4
2017-12-10T04:13:28.080Z,991.4
2017-12-10T04:14:29.522Z,991.4
2017-12-10T04:15:30.931Z,991.4
2017-12-10T04:16:32.491Z,991.4
2017-12-10T04:17:33.952Z,991.3
2017-12-10T04:18:35.409Z,991.3
2017-12-10T04:19:37.003Z,991.2
2017-12-10T04:20:38.404Z,991.3
2017-12-10T04:21:39.816Z,991.3
2017-12-10T04:22:41.231Z,991.3
2017-12-10T04:23:42.712Z,991.3
2017-12-10T04:24:44.298Z,991.2
2017-12-10T04:25:46.265Z,991.1
2017-12-10T04:26:48.124Z,991.2
2017-12-10T04:27:49.531Z,991.2
2017-12-10T04:28:50.974Z,991.1
2017-12-10T04:29:52.521Z,991.1
2017-12-10T04:30:53.950Z,991.0
2017-12-10T04:31:55.381Z,991.0
2017-12-10T04:32:56.784Z,991.0
2017-12-10T04:33:58.673Z,990.9
2017-12-10T04:35:00.188Z,990.9
2017-12-10T04:36:01.601Z,990.9
2017-12-10T04:37:03.175Z,990.9
2017-12-10T04:38:04.719Z,990.9
2017-12-10T04:39:06.465Z,990.8
2017-12-10T04:40:08.181Z,990.9
2017-12-10T04:41:09.669Z,990.8
2017-12-10T04:42:11.144Z,990.8
2017-12-10T04:43:12.593Z,990.8
2017-12-10T04:44:14.068Z,990.7
2017-12-10T04:45:15.502Z,990.8
2017-12-10T04:46:16.941Z,990.8
2017-12-10T04:47:18.411Z,990.7
2017-12-10T04:48:19.887Z,990.6
2017-12-10T04:49:21.356Z,990.6
2017-12-10T04:50:22.791Z,990.6
2017-12-10T04:51:24.233Z,990.5
2017-12-10T04:52:25.674Z,990.6
2017-12-10T04:53:27.066Z,990.5
2017-12-10T04:54:28.498Z,990.5
2017-12-10T04:55:29.943Z,990.5
2017-12-10T04:56:31.332Z,990.4
2017-12-10T04:57:32.789Z,990.4
2017-12-10T04:58:34.205Z,990.3
2017-12-10T04:59:35.620Z,990.4
2017-12-10T05:00:37.047Z,990.3
2017-12-10T05:01:38.459Z,990.3
2017-12-10T05:02:39.881Z,990.2
2017-12-10T05:03:41.281Z,990.2
2017-12-10T05:04:42.756Z,990.2
2017-12-10T05:05:44.165Z,990.2
2017-12-10T05:06:45.608Z,990.2
2017-12-10T05:07:47.037Z,990.1
2017-12-10T05:08:48.474Z,990.1
2017-12-10T05:09:49.907Z,990.0
2017-12-10T05:10:51.338Z,990.0
2017-12-10T05:11:52.789Z,990.0
2017-12-10T05:12:54.222Z,989.9
2017-12-10T05:13:55.629Z,989.9
2017-12-10T05:14:57.054Z,990.0
2017-12-10T05:15:58.408Z,989.8
2017-12-10T05:16:59.818Z,989.9
2017-12-10T05:18:01.230Z,989.8
2017-12-10T05:19:02.678Z,989.8
2017-12-10T05:20:04.114Z,989.8
2017-12-10T05:21:05.534Z,989.7
2017-12-10T05:22:06.958Z,989.7
2017-12-10T05:23:08.358Z,989.6
2017-12-10T05:24:09.754Z,989.5
2017-12-10T05:25:11.164Z,989.6
2017-12-10T05:26:12.605Z,989.5
2017-12-10T05:27:14.009Z,989.5
2017-12-10T05:28:15.429Z,989.4
2017-12-10T05:29:16.832Z,989.4
2017-12-10T05:30:18.231Z,989.4
2017-12-10T05:31:19.628Z,989.3
2017-12-10T05:32:21.050Z,989.3
2017-12-10T05:33:22.485Z,989.3
2017-12-10T05:34:23.916Z,989.2
2017-12-10T05:35:25.288Z,989.2
2017-12-10T05:36:26.693Z,989.2
2017-12-10T05:37:28.092Z,989.1
2017-12-10T05:38:29.522Z,989.2
2017-12-10T05:39:30.958Z,989.0
2017-12-10T05:40:32.389Z,989.0
2017-12-10T05:41:33.796Z,989.0
2017-12-10T05:42:35.214Z,989.0
2017-12-10T05:43:36.625Z,988.9
2017-12-10T05:44:38.049Z,988.9
2017-12-10T05:45:39.495Z,988.9
2017-12-10T05:46:40.881Z,988.8
2017-12-10T05:47:42.522Z,988.7
2017-12-10T05:48:43.984Z,988.8
2017-12-10T05:49:45.377Z,988.8
2017-12-10T05:50:46.815Z,988.7
2017-12-10T05:51:48.242Z,988.6
2017-12-10T05:52:49.671Z,988.6
2017-12-10T05:53:51.118Z,988.6
2017-12-10T05:54:52.639Z,988.5
2017-12-10T05:55:54.093Z,988.5
2017-12-10T05:56:55.508Z,988.5
2017-12-10T05:57:56.939Z,988.5
2017-12-10T05:58:58.357Z,988.4
2017-12-10T05:59:59.800Z,988.4
2017-12-10T06:01:01.254Z,988.3
2017-12-10T06:02:02.751Z,988.3
2017-12-10T06:03:04.152Z,988.3
2017-12-10T06:04:05.596Z,988.3
2017-12-10T06:05:07.036Z,988.2
2017-12-10T06:06:08.456Z,988.2
2017-12-10T06:07:09.891Z,988.2
2017-12-10T06:08:11.328Z,988.1
2017-12-10T06:09:12.747Z,988.0
2017-12-10T06:10:14.193Z,988.1
2017-12-10T06:11:15.604Z,988.1
2017-12-10T06:12:17.018Z,987.9
2017-12-10T06:13:18.481Z,987.9
2017-12-10T06:14:19.901Z,987.8
2017-12-10T06:15:21.322Z,987.9
2017-12-10T06:16:22.751Z,987.7
2017-12-10T06:17:24.211Z,987.7
2017-12-10T06:18:25.616Z,987.8
2017-12-10T06:19:27.036Z,987.7
2017-12-10T06:20:28.471Z,987.7
2017-12-10T06:21:29.897Z,987.7
2017-12-10T06:22:31.328Z,987.6
2017-12-10T06:23:32.763Z,987.6
2017-12-10T06:24:34.198Z,987.5
2017-12-10T06:25:35.656Z,987.5
2017-12-10T06:26:37.091Z,987.6
2017-12-10T06:27:38.569Z,987.5
2017-12-10T06:28:39.976Z,987.4
2017-12-10T06:29:41.371Z,987.4
2017-12-10T06:30:42.871Z,987.3
2017-12-10T06:31:44.279Z,987.3
2017-12-10T06:32:45.745Z,987.2
2017-12-10T06:33:47.148Z,987.2
2017-12-10T06:34:48.527Z,987.1
2017-12-10T06:35:49.985Z,987.2
2017-12-10T06:36:51.395Z,987.1
2017-12-10T06:37:52.799Z,987.1
2017-12-10T06:38:54.229Z,987.0
2017-12-10T06:39:55.630Z,987.1
2017-12-10T06:40:57.063Z,987.0
2017-12-10T06:41:58.486Z,987.0
2017-12-10T06:42:59.911Z,986.9
2017-12-10T06:44:01.329Z,987.0
2017-12-10T06:45:02.874Z,987.0
2017-12-10T06:46:04.292Z,986.9
2017-12-10T06:47:05.734Z,986.8
2017-12-10T06:48:07.160Z,986.8
2017-12-10T06:49:08.562Z,986.8
2017-12-10T06:50:09.968Z,986.8
2017-12-10T06:51:11.453Z,986.7
2017-12-10T06:52:12.804Z,986.8
2017-12-10T06:53:14.200Z,986.7
2017-12-10T06:54:15.618Z,986.7
2017-12-10T06:55:17.037Z,986.6
2017-12-10T06:56:18.445Z,986.7
2017-12-10T06:57:19.833Z,986.6
2017-12-10T06:58:21.202Z,986.5
2017-12-10T06:59:22.642Z,986.6
2017-12-10T07:00:24.096Z,986.6
2017-12-10T07:01:25.491Z,986.5
2017-12-10T07:02:26.874Z,986.5
2017-12-10T07:03:28.297Z,986.5
2017-12-10T07:04:29.752Z,986.5
2017-12-10T07:05:31.178Z,986.5
2017-12-10T07:06:32.589Z,986.5
2017-12-10T07:07:34.031Z,986.4
2017-12-10T07:08:35.451Z,986.4
2017-12-10T07:09:36.862Z,986.4
2017-12-10T07:10:38.349Z,986.4
2017-12-10T07:11:39.803Z,986.4
2017-12-10T07:12:41.203Z,986.3
2017-12-10T07:13:42.627Z,986.2
2017-12-10T07:14:44.036Z,986.2
2017-12-10T07:15:45.423Z,986.2
2017-12-10T07:16:46.869Z,986.1
2017-12-10T07:17:48.298Z,986.2
2017-12-10T07:18:49.725Z,986.1
2017-12-10T07:19:51.147Z,986.1
2017-12-10T07:20:52.540Z,986.1
2017-12-10T07:21:53.966Z,986.1
2017-12-10T07:22:55.344Z,986.0
2017-12-10T07:23:56.736Z,986.0
2017-12-10T07:24:58.203Z,986.0
2017-12-10T07:25:59.918Z,985.9
2017-12-10T07:27:01.337Z,985.9
2017-12-10T07:28:02.783Z,985.8
2017-12-10T07:29:04.441Z,985.6
2017-12-10T07:30:05.842Z,985.7
2017-12-10T07:31:07.276Z,985.7
2017-12-10T07:32:08.669Z,985.6
2017-12-10T07:33:10.094Z,985.6
2017-12-10T07:34:11.488Z,985.6
2017-12-10T07:35:12.949Z,985.5
2017-12-10T07:36:14.324Z,985.4
2017-12-10T07:37:15.773Z,985.4
2017-12-10T07:38:17.202Z,985.4
2017-12-10T07:39:18.602Z,985.3
2017-12-10T07:40:20.026Z,985.3
2017-12-10T07:41:21.429Z,985.3
2017-12-10T07:42:22.852Z,985.2
2017-12-10T07:43:24.276Z,985.2
2017-12-10T07:44:25.686Z,985.1
2017-12-10T07:45:27.071Z,985.3
2017-12-10T07:46:28.506Z,985.1
2017-12-10T07:47:29.915Z,985.1
2017-12-10T07:48:31.330Z,985.1
2017-12-10T07:49:32.772Z,985.0
2017-12-10T07:50:34.196Z,985.0
2017-12-10T07:51:35.591Z,984.8
2017-12-10T07:52:36.971Z,984.8
2017-12-10T07:53:38.408Z,984.8
2017-12-10T07:54:39.834Z,984.8
2017-12-10T07:55:41.207Z,984.8
2017-12-10T07:56:42.640Z,984.8
2017-12-10T07:57:44.022Z,984.7
2017-12-10T07:58:45.432Z,984.7
2017-12-10T07:59:46.851Z,984.7
2017-12-10T08:00:48.294Z,984.7
2017-12-10T08:01:49.679Z,984.6
2017-12-10T08:02:51.060Z,984.6
2017-12-10T08:03:52.495Z,984.5
2017-12-10T08:04:53.935Z,984.4
2017-12-10T08:05:55.353Z,984.5
2017-12-10T08:06:56.728Z,984.4
2017-12-10T08:07:58.159Z,984.3
2017-12-10T08:08:59.564Z,984.3
2017-12-10T08:10:00.967Z,984.2
2017-12-10T08:11:02.346Z,984.2
2017-12-10T08:12:03.775Z,984.2
2017-12-10T08:13:05.186Z,984.1
2017-12-10T08:14:06.593Z,984.1
2017-12-10T08:15:08.033Z,984.2
2017-12-10T08:16:09.442Z,984.0
2017-12-10T08:17:10.858Z,983.9
2017-12-10T08:18:12.225Z,983.9
2017-12-10T08:19:13.591Z,983.9
2017-12-10T08:20:14.995Z,984.0
2017-12-10T08:21:16.366Z,983.8
2017-12-10T08:22:17.796Z,983.7
2017-12-10T08:23:19.261Z,983.7
2017-12-10T08:24:20.674Z,983.7
2017-12-10T08:25:22.040Z,983.9
2017-12-10T08:26:23.475Z,983.6
2017-12-10T08:27:24.890Z,983.5
2017-12-10T08:28:26.295Z,983.4
2017-12-10T08:29:27.714Z,983.5
2017-12-10T08:30:29.097Z,983.3
2017-12-10T08:31:30.561Z,983.1
2017-12-10T08:32:31.936Z,983.4
2017-12-10T08:33:33.418Z,983.3
2017-12-10T08:34:34.824Z,983.3
2017-12-10T08:35:36.220Z,983.5
2017-12-10T08:36:37.639Z,983.4
2017-12-10T08:37:39.071Z,983.2
2017-12-10T08:38:40.467Z,983.1
2017-12-10T08:39:41.910Z,983.1
2017-12-10T08:40:43.346Z,983.1
2017-12-10T08:41:44.932Z,983.0
2017-12-10T08:42:46.331Z,983.0
2017-12-10T08:43:47.734Z,983.1
2017-12-10T08:44:49.144Z,982.9
2017-12-10T08:45:50.601Z,982.7
2017-12-10T08:46:52.017Z,982.7
2017-12-10T08:47:53.458Z,982.7
2017-12-10T08:48:54.871Z,982.7
2017-12-10T08:49:56.300Z,982.7
2017-12-10T08:50:57.710Z,982.7
2017-12-10T08:51:59.146Z,982.5
2017-12-10T08:53:00.630Z,982.6
2017-12-10T08:54:02.006Z,982.5
2017-12-10T08:55:03.424Z,982.5
2017-12-10T08:56:05.050Z,982.4
2017-12-10T08:57:06.780Z,982.4
2017-12-10T08:58:08.459Z,982.3
2017-12-10T08:59:09.870Z,982.4
2017-12-10T09:00:11.298Z,982.1
2017-12-10T09:01:12.762Z,982.2
2017-12-10T09:02:14.165Z,982.1
2017-12-10T09:03:15.586Z,982.1
2017-12-10T09:04:17.016Z,982.1
2017-12-10T09:05:18.452Z,982.0
2017-12-10T09:06:19.873Z,981.9
2017-12-10T09:07:21.267Z,982.2
2017-12-10T09:08:22.709Z,982.1
2017-12-10T09:09:24.127Z,982.0
2017-12-10T09:10:25.498Z,982.0
2017-12-10T09:11:26.959Z,981.8
2017-12-10T09:12:28.407Z,981.7
2017-12-10T09:13:29.791Z,981.7
2017-12-10T09:14:31.205Z,981.7
2017-12-10T09:15:32.657Z,981.6
2017-12-10T09:16:34.087Z,981.6
2017-12-10T09:17:35.502Z,981.6
2017-12-10T09:18:36.949Z,981.5
2017-12-10T09:19:38.379Z,981.5
2017-12-10T09:20:39.778Z,981.5
2017-12-10T09:21:41.160Z,981.4
2017-12-10T09:22:42.602Z,981.3
2017-12-10T09:23:44.036Z,981.3
2017-12-10T09:24:45.463Z,981.3
2017-12-10T09:25:46.916Z,981.3
2017-12-10T09:26:48.391Z,981.2
2017-12-10T09:27:49.841Z,981.2
2017-12-10T09:28:51.243Z,981.2
2017-12-10T09:29:52.700Z,981.1
2017-12-10T09:30:54.128Z,981.1
2017-12-10T09:31:55.531Z,981.0
2017-12-10T09:32:56.926Z,980.8
2017-12-10T09:33:58.355Z,980.9
2017-12-10T09:34:59.763Z,980.8
2017-12-10T09:36:01.201Z,980.7
2017-12-10T09:37:02.624Z,980.8
2017-12-10T09:38:04.072Z,980.6
2017-12-10T09:39:05.508Z,980.7
2017-12-10T09:40:06.926Z,980.6
2017-12-10T09:41:08.373Z,980.5
2017-12-10T09:42:09.799Z,980.4
2017-12-10T09:43:11.211Z,980.4
2017-12-10T09:44:12.647Z,980.3
2017-12-10T09:45:14.066Z,980.3
2017-12-10T09:46:15.512Z,980.3
2017-12-10T09:47:16.882Z,980.2
2017-12-10T09:48:18.318Z,980.2
2017-12-10T09:49:19.786Z,980.2
2017-12-10T09:50:21.252Z,980.2
2017-12-10T09:51:22.649Z,980.2
2017-12-10T09:52:24.031Z,980.2
2017-12-10T09:53:25.407Z,980.1
2017-12-10T09:54:26.848Z,980.1
2017-12-10T09:55:28.295Z,980.2
2017-12-10T09:56:29.696Z,980.0
2017-12-10T09:57:31.072Z,979.9
2017-12-10T09:58:32.506Z,979.9
2017-12-10T09:59:33.919Z,979.8
2017-12-10T10:00:35.417Z,979.7
2017-12-10T10:01:36.829Z,979.7
2017-12-10T10:02:38.315Z,979.6
2017-12-10T10:03:39.740Z,979.5
2017-12-10T10:04:41.187Z,979.5
2017-12-10T10:05:42.643Z,979.5
2017-12-10T10:06:44.008Z,979.4
2017-12-10T10:07:45.461Z,979.4
2017-12-10T10:08:46.895Z,979.3
2017-12-10T10:09:48.378Z,979.1
2017-12-10T10:10:49.810Z,979.1
2017-12-10T10:11:51.247Z,979.0
2017-12-10T10:12:52.721Z,979.0
2017-12-10T10:13:54.394Z,979.0
2017-12-10T10:14:55.854Z,978.9
2017-12-10T10:15:57.293Z,978.9
2017-12-10T10:16:58.721Z,978.8
2017-12-10T10:18:00.242Z,978.7
2017-12-10T10:19:01.652Z,978.7
2017-12-10T10:20:03.094Z,978.6
2017-12-10T10:21:04.521Z,978.7
2017-12-10T10:22:05.927Z,978.5
2017-12-10T10:23:07.363Z,978.5
2017-12-10T10:24:08.821Z,978.4
2017-12-10T10:25:10.250Z,978.4
2017-12-10T10:26:11.669Z,978.4
2017-12-10T10:27:13.107Z,978.3
2017-12-10T10:28:14.526Z,978.2
2017-12-10T10:29:15.908Z,978.3
2017-12-10T10:30:17.294Z,978.3
2017-12-10T10:31:18.686Z,978.4
2017-12-10T10:32:20.163Z,978.4
2017-12-10T10:33:21.527Z,978.3
2017-12-10T10:34:22.972Z,978.2
2017-12-10T10:35:24.386Z,978.2
2017-12-10T10:36:25.841Z,978.1
2017-12-10T10:37:27.256Z,978.1
2017-12-10T10:38:28.698Z,978.0
2017-12-10T10:39:30.110Z,978.0
2017-12-10T10:40:31.539Z,977.9
2017-12-10T10:41:33.049Z,977.8
2017-12-10T10:42:34.604Z,977.8
2017-12-10T10:43:36.166Z,977.7
2017-12-10T10:44:37.666Z,977.7
2017-12-10T10:45:39.272Z,977.5
2017-12-10T10:46:40.693Z,977.5
2017-12-10T10:47:42.308Z,977.4
2017-12-10T10:48:43.785Z,977.3
2017-12-10T10:49:45.301Z,977.3
2017-12-10T10:50:46.737Z,977.2
2017-12-10T10:51:48.213Z,977.1
2017-12-10T10:52:49.660Z,977.0
2017-12-10T10:53:51.105Z,977.0
2017-12-10T10:54:52.585Z,976.9
2017-12-10T10:55:54.007Z,976.9
2017-12-10T10:56:55.478Z,976.9
2017-12-10T10:57:57.062Z,976.6
2017-12-10T10:58:58.569Z,976.7
2017-12-10T10:59:59.964Z,976.6
2017-12-10T11:01:01.346Z,976.5
2017-12-10T11:02:02.768Z,976.5
2017-12-10T11:03:04.208Z,976.5
2017-12-10T11:04:05.680Z,976.5
2017-12-10T11:05:07.229Z,976.3
2017-12-10T11:06:08.987Z,976.3
2017-12-10T11:07:10.656Z,976.2
2017-12-10T11:08:12.056Z,976.0
2017-12-10T11:09:13.481Z,975.9
2017-12-10T11:10:15.094Z,975.8
2017-12-10T11:11:16.558Z,975.7
2017-12-10T11:12:18.019Z,975.6
2017-12-10T11:13:19.609Z,975.5
2017-12-10T11:14:21.158Z,975.5
2017-12-10T11:15:22.546Z,975.4
2017-12-10T11:16:23.978Z,975.4
2017-12-10T11:17:25.528Z,975.2
2017-12-10T11:18:27.032Z,975.2
2017-12-10T11:19:28.461Z,975.1
2017-12-10T11:20:29.859Z,975.0
2017-12-10T11:21:31.272Z,974.8
2017-12-10T11:22:32.680Z,974.8
2017-12-10T11:23:34.117Z,974.9
2017-12-10T11:24:35.571Z,974.8
2017-12-10T11:25:37.136Z,974.9
2017-12-10T11:26:38.567Z,974.7
2017-12-10T11:27:40.002Z,974.7
2017-12-10T11:28:41.457Z,974.7
2017-12-10T11:29:42.949Z,974.6
2017-12-10T11:30:44.324Z,974.6
2017-12-10T11:31:45.779Z,974.5
2017-12-10T11:32:47.592Z,974.4
2017-12-10T11:33:49.330Z,974.5
2017-12-10T11:34:50.937Z,974.4
2017-12-10T11:35:52.391Z,974.3
2017-12-10T11:36:54.160Z,974.2
2017-12-10T11:37:55.576Z,974.4
2017-12-10T11:38:56.972Z,974.3
2017-12-10T11:39:58.514Z,974.3
2017-12-10T11:40:59.989Z,974.1
2017-12-10T11:42:01.456Z,974.1
2017-12-10T11:43:02.999Z,974.0
2017-12-10T11:44:04.411Z,974.0
2017-12-10T11:45:05.840Z,973.8
2017-12-10T11:46:07.357Z,973.7
2017-12-10T11:47:08.870Z,973.7
2017-12-10T11:48:10.298Z,973.7
2017-12-10T11:49:11.783Z,973.6
2017-12-10T11:50:13.227Z,973.6
2017-12-10T11:51:14.657Z,973.6
2017-12-10T11:52:16.063Z,973.6
2017-12-10T11:53:17.472Z,973.5
2017-12-10T11:54:18.879Z,973.6
2017-12-10T11:55:20.303Z,973.5
2017-12-10T11:56:21.744Z,973.4
2017-12-10T11:57:23.158Z,973.6
2017-12-10T11:58:24.598Z,973.4
2017-12-10T11:59:25.973Z,973.3
2017-12-10T12:00:27.430Z,973.4
2017-12-10T12:01:28.858Z,973.2
2017-12-10T12:02:30.305Z,973.0
2017-12-10T12:03:31.719Z,973.0
2017-12-10T12:04:33.178Z,973.0
2017-12-10T12:05:34.774Z,972.9
2017-12-10T12:06:36.183Z,973.0
2017-12-10T12:07:37.634Z,972.9
2017-12-10T12:08:39.105Z,972.9
2017-12-10T12:09:40.540Z,972.9
2017-12-10T12:10:41.966Z,972.8
2017-12-10T12:11:43.435Z,972.7
2017-12-10T12:12:44.881Z,972.7
2017-12-10T12:13:46.314Z,972.6
2017-12-10T12:14:47.767Z,972.5
2017-12-10T12:15:49.198Z,972.4
2017-12-10T12:16:50.626Z,972.3
2017-12-10T12:17:52.016Z,972.4
2017-12-10T12:18:53.435Z,972.3
2017-12-10T12:19:54.878Z,972.4
2017-12-10T12:20:56.283Z,972.5
2017-12-10T12:21:57.670Z,972.4
2017-12-10T12:22:59.092Z,972.4
2017-12-10T12:24:00.575Z,972.4
2017-12-10T12:25:01.936Z,972.5
2017-12-10T12:26:03.395Z,972.5
2017-12-10T12:27:04.812Z,972.4
2017-12-10T12:28:06.250Z,972.6
2017-12-10T12:29:07.645Z,972.5
2017-12-10T12:30:09.088Z,972.5
2017-12-10T12:31:10.479Z,972.4
2017-12-10T12:32:11.878Z,972.4
2017-12-10T12:33:13.283Z,972.4
2017-12-10T12:34:14.703Z,972.4
2017-12-10T12:35:16.121Z,972.4
2017-12-10T12:36:18.103Z,972.4
2017-12-10T12:37:19.539Z,972.3
2017-12-10T12:38:20.919Z,972.2
2017-12-10T12:39:22.361Z,972.2
2017-12-10T12:40:23.750Z,972.2
2017-12-10T12:41:25.172Z,972.2
2017-12-10T12:42:26.552Z,972.1
2017-12-10T12:43:27.938Z,972.0
2017-12-10T12:44:29.309Z,972.0
2017-12-10T12:45:30.710Z,972.0
2017-12-10T12:46:32.128Z,971.9
2017-12-10T12:47:33.547Z,972.0
2017-12-10T12:48:34.988Z,972.0
2017-12-10T12:49:36.351Z,971.9
2017-12-10T12:50:37.756Z,971.9
2017-12-10T12:51:39.152Z,971.8
2017-12-10T12:52:40.555Z,971.8
2017-12-10T12:53:41.943Z,971.8
2017-12-10T12:54:43.382Z,971.7
2017-12-10T12:55:44.822Z,971.7
2017-12-10T12:56:46.347Z,971.6
2017-12-10T12:57:47.853Z,971.5
2017-12-10T12:58:49.265Z,971.5
2017-12-10T12:59:50.673Z,971.4
2017-12-10T13:00:52.086Z,971.4
2017-12-10T13:01:53.487Z,971.3
2017-12-10T13:02:54.911Z,971.3
2017-12-10T13:03:56.277Z,971.2
2017-12-10T13:04:57.707Z,971.2
2017-12-10T13:05:59.088Z,971.1
2017-12-10T13:07:00.484Z,971.0
2017-12-10T13:08:01.896Z,971.1
2017-12-10T13:09:03.349Z,971.0
2017-12-10T13:10:04.720Z,971.0
2017-12-10T13:11:06.132Z,970.9